Time;durP1;ratioP1;P1;durP2;ratioP2;P2;SDS_P1;SDS_P2;PMS_P1;PMS_P2;Temp;Humidity;BMP_temperature;BMP_pressure;BME280_temperature;BME280_humidity;BME280_pressure;Samples;Min_cycle;Max_cycle;Signal;HPM_P1;HPM_P2
2023/01/03 00:01:51;;;;;;;;;;;;;;;-144.47;100.00;61586.06;5021224;28;19913;-79
2023/01/03 00:04:18;;;;;;;;;;;;;;;-144.47;100.00;61586.06;5023690;28;19917;-79
2023/01/03 00:06:46;;;;;;;;;;;;;;;-144.47;100.00;61586.06;5024622;28;20250;-79
2023/01/03 00:09:13;;;;;;;;;;;;;;;-144.47;100.00;61586.06;5022092;28;20352;-79
2023/01/03 00:14:24;;;;;;;;;;;;;;;-144.47;100.00;61586.06;5024625;28;19913;-78
2023/01/03 00:16:54;;;;;;;;;;;;;;;-144.47;100.00;61586.06;5016518;28;20324;-78
2023/01/03 00:19:20;;;;;;;;;;;;;;;-144.47;100.00;61586.06;5024303;28;20000;-78
2023/01/03 00:21:46;;;;;;;;;;;;;;;-144.47;100.00;61586.06;5021920;28;20305;-79
2023/01/03 00:24:12;;;;;;;;;;;;;;;-144.47;100.00;61586.06;5022867;28;19923;-80
2023/01/03 00:26:39;;;;;;;;;;;;;;;-144.47;100.00;61586.06;5025000;28;19917;-81
2023/01/03 00:29:04;;;;;;;;;;;;;;;-144.47;100.00;61586.06;5019642;28;20292;-80
2023/01/03 00:31:31;;;;;;;;;;;;;;;-144.47;100.00;61586.06;5021634;28;19920;-80
2023/01/03 00:33:57;;;;;;;;;;;;;;;-144.47;100.00;61586.06;5024093;28;20023;-83
2023/01/03 00:36:22;;;;;;;;;;;;;;;-144.47;100.00;61586.06;5021188;28;20012;-80
2023/01/03 00:38:48;;;;;;;;;;;;;;;-144.47;100.00;61586.06;5025221;28;20005;-81
2023/01/03 00:41:14;;;;;;;;;;;;;;;-144.47;100.00;61586.06;5018974;28;19984;-81
2023/01/03 00:43:42;;;;;;;;;;;;;;;-144.47;100.00;61586.06;5020192;28;20011;-80
2023/01/03 00:46:09;;;;;;;;;;;;;;;-144.47;100.00;61586.06;5023208;28;20269;-81
2023/01/03 00:48:35;;;;;;;;;;;;;;;-144.47;100.00;61586.06;5022847;28;20534;-82
2023/01/03 00:51:07;;;;;;;;;;;;;;;-144.47;100.00;61586.06;5020893;28;19924;-82
2023/01/03 00:53:33;;;;;;;;;;;;;;;-144.47;100.00;61586.06;5022677;28;19999;-82
2023/01/03 00:56:06;;;;;;;;;;;;;;;-144.47;100.00;61586.06;5021190;28;19917;-80
2023/01/03 00:58:32;;;;;;;;;;;;;;;-144.47;100.00;61586.06;5022109;28;19952;-80
2023/01/03 01:01:03;;;;;;;;;;;;;;;-144.47;100.00;61586.06;5021206;28;19953;-80
2023/01/03 01:03:28;;;;;;;;;;;;;;;-144.47;100.00;61586.06;5021902;28;20280;-79
2023/01/03 01:05:54;;;;;;;;;;;;;;;-144.47;100.00;61586.06;5022832;28;19917;-80
2023/01/03 01:08:19;;;;;;;;;;;;;;;-144.47;100.00;61586.06;5020470;28;20015;-79
2023/01/03 01:11:00;;;;;;;;;;;;;;;-144.47;100.00;61586.06;5023470;28;19932;-80
2023/01/03 01:13:29;;;;;;;;;;;;;;;-144.47;100.00;61586.06;5020919;28;19917;-80
2023/01/03 01:15:59;;;;;;;;;;;;;;;-144.47;100.00;61586.06;5018898;28;19956;-79
2023/01/03 01:18:24;;;;;;;;;;;;;;;-144.47;100.00;61586.06;5021855;28;20377;-80
2023/01/03 01:20:50;;;;;;;;;;;;;;;-144.47;100.00;61586.06;5014752;28;20420;-79
2023/01/03 01:23:15;;;;;;;;;;;;;;;-144.47;100.00;61586.06;5020255;28;19926;-81
2023/01/03 01:25:41;;;;;;;;;;;;;;;-144.47;100.00;61586.06;5023712;28;19917;-80
2023/01/03 01:28:07;;;;;;;;;;;;;;;-144.47;100.00;61586.06;5021210;28;20324;-80
2023/01/03 01:30:32;;;;;;;;;;;;;;;-144.47;100.00;61586.06;5022299;28;20321;-79
2023/01/03 01:32:58;;;;;;;;;;;;;;;-144.47;100.00;61586.06;5024401;28;19920;-81
2023/01/03 01:35:23;;;;;;;;;;;;;;;-144.47;100.00;61586.06;5021408;28;20002;-82
2023/01/03 01:37:48;;;;;;;;;;;;;;;-144.47;100.00;61586.06;5021796;28;19917;-81
2023/01/03 01:40:14;;;;;;;;;;;;;;;-144.47;100.00;61586.06;5005263;28;19925;-81
2023/01/03 01:45:23;;;;;;;;;;;;;;;-144.47;100.00;61586.06;5020129;28;20000;-80
2023/01/03 01:47:51;;;;;;;;;;;;;;;-144.47;100.00;61586.06;5021793;28;20011;-79
2023/01/03 01:50:27;;;;;;;;;;;;;;;-144.47;100.00;61586.06;5021933;28;19925;-80
2023/01/03 01:52:58;;;;;;;;;;;;;;;-144.47;100.00;61586.06;5023231;28;19918;-81
2023/01/03 01:55:32;;;;;;;;;;;;;;;-144.47;100.00;61586.06;5016580;28;19913;-81
2023/01/03 01:58:00;;;;;;;;;;;;;;;-144.47;100.00;61586.06;5019026;28;19921;-82
2023/01/03 02:00:26;;;;;;;;;;;;;;;-144.47;100.00;61586.06;5021793;28;20455;-80
2023/01/03 02:02:52;;;;;;;;;;;;;;;-144.47;100.00;61586.06;5017393;28;19996;-80
2023/01/03 02:05:19;;;;;;;;;;;;;;;-144.47;100.00;61586.06;5023350;28;19916;-80
2023/01/03 02:07:49;;;;;;;;;;;;;;;-144.47;100.00;61586.06;5027421;28;19929;-81
2023/01/03 02:10:15;;;;;;;;;;;;;;;-144.47;100.00;61586.06;5024415;28;20360;-81
2023/01/03 02:13:06;;;;;;;;;;;;;;;-144.47;100.00;61586.06;5027612;28;20261;-80
2023/01/03 02:15:34;;;;;;;;;;;;;;;-144.47;100.00;61586.06;5019744;28;20399;-80
2023/01/03 02:18:15;;;;;;;;;;;;;;;-144.47;100.00;61586.06;5024598;28;19917;-80
2023/01/03 02:20:55;;;;;;;;;;;;;;;-144.47;100.00;61586.06;5024900;28;20366;-82
2023/01/03 02:23:20;;;;;;;;;;;;;;;-144.47;100.00;61586.06;5018776;28;19924;-80
2023/01/03 02:26:04;;;;;;;;;;;;;;;-144.47;100.00;61586.06;5027142;28;19925;-79
2023/01/03 02:28:30;;;;;;;;;;;;;;;-144.47;100.00;61586.06;5022057;28;19928;-81
2023/01/03 02:31:02;;;;;;;;;;;;;;;-144.47;100.00;61586.06;5025114;28;19921;-82
2023/01/03 02:33:52;;;;;;;;;;;;;;;-144.47;100.00;61586.06;5025533;28;19922;-80
2023/01/03 02:36:45;;;;;;;;;;;;;;;-144.47;100.00;61586.06;5023708;28;20355;-82
2023/01/03 02:39:11;;;;;;;;;;;;;;;-144.47;100.00;61586.06;5022189;28;20005;-80
2023/01/03 02:41:44;;;;;;;;;;;;;;;-144.47;100.00;61586.06;5022741;28;20016;-82
2023/01/03 02:44:16;;;;;;;;;;;;;;;-144.47;100.00;61586.06;5026504;28;19972;-82
2023/01/03 02:46:57;;;;;;;;;;;;;;;-144.47;100.00;61586.06;5024159;28;19918;-82
2023/01/03 02:49:29;;;;;;;;;;;;;;;-144.47;100.00;61586.06;5016880;28;20265;-79
2023/01/03 02:51:58;;;;;;;;;;;;;;;-144.47;100.00;61586.06;5015089;28;19921;-79
2023/01/03 02:54:29;;;;;;;;;;;;;;;-144.47;100.00;61586.06;5026858;28;20292;-81
2023/01/03 02:56:58;;;;;;;;;;;;;;;-144.47;100.00;61586.06;5019997;28;19960;-80
2023/01/03 02:59:36;;;;;;;;;;;;;;;-144.47;100.00;61586.06;5020645;28;20319;-79
2023/01/03 03:02:03;;;;;;;;;;;;;;;-144.47;100.00;61586.06;5021432;28;20336;-78
2023/01/03 03:04:29;;;;;;;;;;;;;;;-144.47;100.00;61586.06;5026024;28;19917;-79
2023/01/03 03:07:03;;;;;;;;;;;;;;;-144.47;100.00;61586.06;5027267;28;19917;-81
2023/01/03 03:09:29;;;;;;;;;;;;;;;-144.47;100.00;61586.06;5021218;28;19972;-79
2023/01/03 03:14:51;;;;;;;;;;;;;;;-144.47;100.00;61586.06;5024251;28;19917;-78
2023/01/03 03:17:23;;;;;;;;;;;;;;;-144.47;100.00;61586.06;5022239;28;19968;-80
2023/01/03 03:25:29;;;;;;;;;;;;;;;-144.47;100.00;61586.06;5024550;28;19917;-81
2023/01/03 03:30:44;;;;;;;;;;;;;;;-144.47;100.00;61586.06;5024266;28;19924;-80
2023/01/03 03:33:12;;;;;;;;;;;;;;;-144.47;100.00;61586.06;5027073;28;19917;-80
2023/01/03 03:35:50;;;;;;;;;;;;;;;-144.47;100.00;61586.06;5024476;28;19917;-80
2023/01/03 03:38:19;;;;;;;;;;;;;;;-144.47;100.00;61586.06;5022860;28;20285;-79
2023/01/03 03:46:30;;;;;;;;;;;;;;;-144.47;100.00;61586.06;5019591;28;20369;-79
2023/01/03 03:51:46;;;;;;;;;;;;;;;-144.47;100.00;61586.06;5025066;28;20524;-81
2023/01/03 03:54:13;;;;;;;;;;;;;;;-144.47;100.00;61586.06;5025995;28;20320;-79
2023/01/03 03:56:40;;;;;;;;;;;;;;;-144.47;100.00;61586.06;5022234;28;20315;-79
2023/01/03 03:59:08;;;;;;;;;;;;;;;-144.47;100.00;61586.06;5026697;28;20013;-79
2023/01/03 04:01:36;;;;;;;;;;;;;;;-144.47;100.00;61586.06;5027064;28;20654;-81
2023/01/03 04:04:17;;;;;;;;;;;;;;;-144.47;100.00;61586.06;5024125;28;20300;-81
2023/01/03 04:06:44;;;;;;;;;;;;;;;-144.47;100.00;61586.06;5023992;28;20316;-81
2023/01/03 04:09:10;;;;;;;;;;;;;;;-144.47;100.00;61586.06;5024783;28;19917;-81
2023/01/03 04:11:35;;;;;;;;;;;;;;;-144.47;100.00;61586.06;5026994;28;19925;-82
2023/01/03 04:14:01;;;;;;;;;;;;;;;-144.47;100.00;61586.06;5025958;28;19963;-81
2023/01/03 04:16:26;;;;;;;;;;;;;;;-144.47;100.00;61586.06;5020720;28;19921;-82
2023/01/03 04:18:52;;;;;;;;;;;;;;;-144.47;100.00;61586.06;5026735;28;19917;-81
2023/01/03 04:21:17;;;;;;;;;;;;;;;-144.47;100.00;61586.06;5016957;28;19924;-81
2023/01/03 04:23:43;;;;;;;;;;;;;;;-144.47;100.00;61586.06;5021229;28;19917;-82
2023/01/03 04:26:08;;;;;;;;;;;;;;;-144.47;100.00;61586.06;5018125;28;19925;-80
2023/01/03 04:28:33;;;;;;;;;;;;;;;-144.47;100.00;61586.06;5023479;28;19924;-82
2023/01/03 04:30:59;;;;;;;;;;;;;;;-144.47;100.00;61586.06;5023565;28;19917;-82
2023/01/03 04:33:24;;;;;;;;;;;;;;;-144.47;100.00;61586.06;5024679;28;20315;-81
2023/01/03 04:35:50;;;;;;;;;;;;;;;-144.47;100.00;61586.06;5023821;28;19918;-83
2023/01/03 04:38:15;;;;;;;;;;;;;;;-144.47;100.00;61586.06;5026973;28;19925;-82
2023/01/03 04:40:41;;;;;;;;;;;;;;;-144.47;100.00;61586.06;5021992;28;19924;-82
2023/01/03 04:45:50;;;;;;;;;;;;;;;-144.47;100.00;61586.06;5026736;28;19940;-83
2023/01/03 04:48:16;;;;;;;;;;;;;;;-144.47;100.00;61586.06;5023233;28;19921;-81
2023/01/03 04:50:49;;;;;;;;;;;;;;;-144.47;100.00;61586.06;5029096;28;20004;-80
2023/01/03 04:53:16;;;;;;;;;;;;;;;-144.47;100.00;61586.06;5024329;28;19917;-80
2023/01/03 04:55:45;;;;;;;;;;;;;;;-144.47;100.00;61586.06;5026666;28;19918;-79
2023/01/03 04:58:10;;;;;;;;;;;;;;;-144.47;100.00;61586.06;5029224;28;20397;-79
2023/01/03 05:00:36;;;;;;;;;;;;;;;-144.47;100.00;61586.06;5030846;28;19964;-79
2023/01/03 05:03:01;;;;;;;;;;;;;;;-144.47;100.00;61586.06;5028401;28;19923;-78
2023/01/03 05:05:27;;;;;;;;;;;;;;;-144.47;100.00;61586.06;5028427;28;20010;-78
2023/01/03 05:07:52;;;;;;;;;;;;;;;-144.47;100.00;61586.06;5025861;28;19997;-78
2023/01/03 05:10:17;;;;;;;;;;;;;;;-144.47;100.00;61586.06;5029507;28;19923;-80
2023/01/03 05:12:58;;;;;;;;;;;;;;;-144.47;100.00;61586.06;5027022;28;19917;-79
2023/01/03 05:15:30;;;;;;;;;;;;;;;-144.47;100.00;61586.06;5026594;28;20342;-80
2023/01/03 05:17:56;;;;;;;;;;;;;;;-144.47;100.00;61586.06;5026590;28;19963;-77
2023/01/03 05:25:55;;;;;;;;;;;;;;;-144.47;100.00;61586.06;5028539;28;19913;-81
2023/01/03 05:28:22;;;;;;;;;;;;;;;-144.47;100.00;61586.06;5029194;28;19924;-80
2023/01/03 05:30:48;;;;;;;;;;;;;;;-144.47;100.00;61586.06;5027493;28;19925;-79
2023/01/03 05:33:13;;;;;;;;;;;;;;;-144.47;100.00;61586.06;5029676;28;19917;-83
2023/01/03 05:35:39;;;;;;;;;;;;;;;-144.47;100.00;61586.06;5025031;28;19932;-81
2023/01/03 05:38:04;;;;;;;;;;;;;;;-144.47;100.00;61586.06;5026932;28;20012;-82
2023/01/03 05:40:30;;;;;;;;;;;;;;;-144.47;100.00;61586.06;5029264;28;19917;-82
2023/01/03 05:42:55;;;;;;;;;;;;;;;-144.47;100.00;61586.06;5025270;28;19928;-83
2023/01/03 05:45:24;;;;;;;;;;;;;;;-144.47;100.00;61586.06;5037118;28;19981;-82
2023/01/03 05:47:51;;;;;;;;;;;;;;;-144.47;100.00;61586.06;5026202;28;20312;-83
2023/01/03 05:50:17;;;;;;;;;;;;;;;-144.47;100.00;61586.06;5025966;28;20289;-82
2023/01/03 05:52:42;;;;;;;;;;;;;;;-144.47;100.00;61586.06;5024112;28;19978;-83
2023/01/03 05:55:09;;;;;;;;;;;;;;;-144.47;100.00;61586.06;5026456;28;19990;-81
2023/01/03 05:57:35;;;;;;;;;;;;;;;-144.47;100.00;61586.06;5023646;28;19923;-83
2023/01/03 06:00:00;;;;;;;;;;;;;;;-144.47;100.00;61586.06;5025455;28;20428;-83
2023/01/03 06:02:27;;;;;;;;;;;;;;;-144.47;100.00;61586.06;5023075;28;19961;-83
2023/01/03 06:04:54;;;;;;;;;;;;;;;-144.47;100.00;61586.06;5026636;28;20289;-82
2023/01/03 06:07:19;;;;;;;;;;;;;;;-144.47;100.00;61586.06;5026472;28;19917;-82
2023/01/03 06:09:45;;;;;;;;;;;;;;;-144.47;100.00;61586.06;5024441;28;19925;-83
2023/01/03 06:12:10;;;;;;;;;;;;;;;-144.47;100.00;61586.06;5024994;28;20011;-81
2023/01/03 06:14:36;;;;;;;;;;;;;;;-144.47;100.00;61586.06;5026388;28;19920;-82
2023/01/03 06:19:46;;;;;;;;;;;;;;;-144.47;100.00;61586.06;5022129;28;19974;-80
2023/01/03 06:22:11;;;;;;;;;;;;;;;-144.47;100.00;61586.06;5021670;28;19921;-82
2023/01/03 06:24:37;;;;;;;;;;;;;;;-144.47;100.00;61586.06;5023633;28;19917;-81
2023/01/03 06:27:03;;;;;;;;;;;;;;;-144.47;100.00;61586.06;5024002;28;19917;-82
2023/01/03 06:29:28;;;;;;;;;;;;;;;-144.47;100.00;61586.06;5016799;28;19917;-81
2023/01/03 06:31:54;;;;;;;;;;;;;;;-144.47;100.00;61586.06;5023595;28;19924;-81
2023/01/03 06:34:19;;;;;;;;;;;;;;;-144.47;100.00;61586.06;5019991;28;19923;-80
2023/01/03 06:36:44;;;;;;;;;;;;;;;-144.47;100.00;61586.06;5021791;28;20004;-81
2023/01/03 06:39:10;;;;;;;;;;;;;;;-144.47;100.00;61586.06;5022002;28;19929;-82
2023/01/03 06:41:35;;;;;;;;;;;;;;;-144.47;100.00;61586.06;5021331;28;19924;-81
2023/01/03 06:44:01;;;;;;;;;;;;;;;-144.47;100.00;61586.06;5021426;28;19964;-81
2023/01/03 06:54:41;;;;;;;;;;;;;;;-144.47;100.00;61586.06;5032031;28;19924;-83
2023/01/03 06:57:06;;;;;;;;;;;;;;;-144.47;100.00;61586.06;5037544;28;19921;-84
2023/01/03 06:59:31;;;;;;;;;;;;;;;-144.47;100.00;61586.06;5036135;28;19991;-82
2023/01/03 07:01:57;;;;;;;;;;;;;;;-144.47;100.00;61586.06;5033111;28;20365;-80
2023/01/03 07:04:24;;;;;;;;;;;;;;;-144.47;100.00;61586.06;5034542;28;19939;-81
2023/01/03 07:06:50;;;;;;;;;;;;;;;-144.47;100.00;61586.06;5030996;28;19996;-81
2023/01/03 07:09:15;;;;;;;;;;;;;;;-144.47;100.00;61586.06;5029823;28;20404;-82
2023/01/03 07:11:41;;;;;;;;;;;;;;;-144.47;100.00;61586.06;5033887;28;19918;-82
2023/01/03 07:14:07;;;;;;;;;;;;;;;-144.47;100.00;61586.06;5041889;28;19992;-85
2023/01/03 07:16:37;;;;;;;;;;;;;;;-144.47;100.00;61586.06;5038602;28;20728;-85
2023/01/03 07:19:04;;;;;;;;;;;;;;;-144.47;100.00;61586.06;5041310;28;19918;-84
2023/01/03 07:21:31;;;;;;;;;;;;;;;-144.47;100.00;61586.06;5044731;28;19963;-84
2023/01/03 07:23:57;;;;;;;;;;;;;;;-144.47;100.00;61586.06;5035058;28;19982;-85
2023/01/03 07:26:23;;;;;;;;;;;;;;;-144.47;100.00;61586.06;5036365;28;19912;-84
2023/01/03 07:28:49;;;;;;;;;;;;;;;-144.47;100.00;61586.06;5042487;28;19917;-85
2023/01/03 07:31:15;;;;;;;;;;;;;;;-144.47;100.00;61586.06;5038439;28;19917;-83
2023/01/03 07:33:40;;;;;;;;;;;;;;;-144.47;100.00;61586.06;5025636;28;19917;-83
2023/01/03 07:36:09;;;;;;;;;;;;;;;-144.47;100.00;61586.06;5028980;28;19921;-84
2023/01/03 07:38:38;;;;;;;;;;;;;;;-144.47;100.00;61586.06;5024901;28;19956;-85
2023/01/03 07:41:04;;;;;;;;;;;;;;;-144.47;100.00;61586.06;5013559;28;19929;-84
2023/01/03 07:43:35;;;;;;;;;;;;;;;-144.47;100.00;61586.06;5018943;28;19917;-86
2023/01/03 07:46:07;;;;;;;;;;;;;;;-144.47;100.00;61586.06;5027484;28;19927;-83
2023/01/03 07:48:33;;;;;;;;;;;;;;;-144.47;100.00;61586.06;5010357;28;20008;-81
2023/01/03 07:50:58;;;;;;;;;;;;;;;-144.47;100.00;61586.06;5012555;28;20011;-81
2023/01/03 07:53:24;;;;;;;;;;;;;;;-144.47;100.00;61586.06;5010420;28;20293;-80
2023/01/03 07:55:49;;;;;;;;;;;;;;;-144.47;100.00;61586.06;5013699;28;19917;-82
2023/01/03 07:58:15;;;;;;;;;;;;;;;-144.47;100.00;61586.06;5011809;28;20423;-82
2023/01/03 08:00:41;;;;;;;;;;;;;;;-144.47;100.00;61586.06;5013868;28;20290;-82
2023/01/03 08:03:07;;;;;;;;;;;;;;;-144.47;100.00;61586.06;5007778;28;19928;-81
2023/01/03 08:05:32;;;;;;;;;;;;;;;-144.47;100.00;61586.06;5016271;28;20033;-75
2023/01/03 08:07:58;;;;;;;;;;;;;;;-144.47;100.00;61586.06;5016271;28;19921;-74
2023/01/03 08:13:16;;;;;;;;;;;;;;;-144.47;100.00;61586.06;5015129;28;19921;-76
2023/01/03 08:15:55;;;;;;;;;;;;;;;-144.47;100.00;61586.06;5014308;28;19918;-78
2023/01/03 08:18:21;;;;;;;;;;;;;;;-144.47;100.00;61586.06;5009191;28;19917;-75
2023/01/03 08:20:47;;;;;;;;;;;;;;;-144.47;100.00;61586.06;5019462;28;19975;-75
2023/01/03 08:23:13;;;;;;;;;;;;;;;-144.47;100.00;61586.06;5019183;28;19921;-77
2023/01/03 08:25:38;;;;;;;;;;;;;;;-144.47;100.00;61586.06;5022546;28;19999;-77
2023/01/03 08:28:04;;;;;;;;;;;;;;;-144.47;100.00;61586.06;5019728;28;19940;-76
2023/01/03 08:30:30;;;;;;;;;;;;;;;-144.47;100.00;61586.06;5023643;28;19917;-79
2023/01/03 08:32:57;;;;;;;;;;;;;;;-144.47;100.00;61586.06;5018390;28;19921;-81
2023/01/03 08:35:24;;;;;;;;;;;;;;;-144.47;100.00;61586.06;5009616;28;19913;-83
2023/01/03 08:37:49;;;;;;;;;;;;;;;-144.47;100.00;61586.06;5016613;28;19917;-86
2023/01/03 08:40:16;;;;;;;;;;;;;;;-144.47;100.00;61586.06;5013584;28;19917;-83
2023/01/03 08:42:43;;;;;;;;;;;;;;;-144.47;100.00;61586.06;5014004;28;19925;-81
2023/01/03 08:45:10;;;;;;;;;;;;;;;-144.47;100.00;61586.06;5007515;28;19925;-84
2023/01/03 08:47:36;;;;;;;;;;;;;;;-144.47;100.00;61586.06;4991602;28;19956;-80
2023/01/03 08:50:02;;;;;;;;;;;;;;;-144.47;100.00;61586.06;5012890;28;19972;-82
2023/01/03 08:52:27;;;;;;;;;;;;;;;-144.47;100.00;61586.06;5008310;28;19971;-80
2023/01/03 08:54:53;;;;;;;;;;;;;;;-144.47;100.00;61586.06;5014024;28;19921;-79
2023/01/03 08:57:18;;;;;;;;;;;;;;;-144.47;100.00;61586.06;5011880;28;19960;-80
2023/01/03 08:59:44;;;;;;;;;;;;;;;-144.47;100.00;61586.06;5011602;28;20032;-78
2023/01/03 09:02:09;;;;;;;;;;;;;;;-144.47;100.00;61586.06;5012489;28;19917;-77
2023/01/03 09:04:34;;;;;;;;;;;;;;;-144.47;100.00;61586.06;5016136;28;19921;-82
2023/01/03 09:07:00;;;;;;;;;;;;;;;-144.47;100.00;61586.06;5016771;28;20079;-83
2023/01/03 09:09:25;;;;;;;;;;;;;;;-144.47;100.00;61586.06;5014556;28;19925;-82
2023/01/03 09:11:51;;;;;;;;;;;;;;;-144.47;100.00;61586.06;5007285;28;19918;-81
2023/01/03 09:14:16;;;;;;;;;;;;;;;-144.47;100.00;61586.06;5013616;28;20004;-80
2023/01/03 09:16:41;;;;;;;;;;;;;;;-144.47;100.00;61586.06;5008390;28;19960;-84
2023/01/03 09:19:07;;;;;;;;;;;;;;;-144.47;100.00;61586.06;5008463;28;19918;-78
2023/01/03 09:21:32;;;;;;;;;;;;;;;-144.47;100.00;61586.06;4998332;28;19925;-84
2023/01/03 09:23:58;;;;;;;;;;;;;;;-144.47;100.00;61586.06;5010245;28;19922;-79
2023/01/03 09:26:23;;;;;;;;;;;;;;;-144.47;100.00;61586.06;4996166;28;19925;-79
2023/01/03 09:28:49;;;;;;;;;;;;;;;-144.47;100.00;61586.06;4994077;28;19924;-77
2023/01/03 09:31:15;;;;;;;;;;;;;;;-144.47;100.00;61586.06;5008533;28;20004;-78
2023/01/03 09:33:40;;;;;;;;;;;;;;;-144.47;100.00;61586.06;5009758;28;19940;-77
2023/01/03 09:36:06;;;;;;;;;;;;;;;-144.47;100.00;61586.06;5002527;28;20028;-77
2023/01/03 09:38:31;;;;;;;;;;;;;;;-144.47;100.00;61586.06;5015518;28;19917;-76
2023/01/03 09:40:59;;;;;;;;;;;;;;;-144.47;100.00;61586.06;5001696;28;21156;-74
2023/01/03 09:43:31;;;;;;;;;;;;;;;-144.47;100.00;61586.06;4996969;28;20673;-77
2023/01/03 09:45:58;;;;;;;;;;;;;;;-144.47;100.00;61586.06;5006495;28;19920;-77
2023/01/03 09:48:42;;;;;;;;;;;;;;;-144.47;100.00;61586.06;5004526;28;20440;-75
2023/01/03 10:05:28;;;;;;;;;;;;;;;-144.47;100.00;61586.06;4978116;28;20449;-79
2023/01/03 10:08:03;;;;;;;;;;;;;;;-144.47;100.00;61586.06;5010978;28;20424;-76
2023/01/03 10:10:37;;;;;;;;;;;;;;;-144.47;100.00;61586.06;5009440;28;19917;-78
2023/01/03 10:13:09;;;;;;;;;;;;;;;-144.47;100.00;61586.06;5013690;28;19917;-78
2023/01/03 10:15:40;;;;;;;;;;;;;;;-144.47;100.00;61586.06;5008448;28;20423;-81
2023/01/03 10:18:15;;;;;;;;;;;;;;;-144.47;100.00;61586.06;5008421;28;20396;-81
2023/01/03 10:20:40;;;;;;;;;;;;;;;-144.47;100.00;61586.06;5004661;28;20369;-81
2023/01/03 10:23:07;;;;;;;;;;;;;;;-144.47;100.00;61586.06;5019014;28;19921;-81
2023/01/03 10:25:35;;;;;;;;;;;;;;;-144.47;100.00;61586.06;5018923;28;20466;-82
2023/01/03 10:28:05;;;;;;;;;;;;;;;-144.47;100.00;61586.06;5022643;28;20442;-80
2023/01/03 10:30:49;;;;;;;;;;;;;;;-144.47;100.00;61586.06;5018693;28;19928;-77
2023/01/03 10:33:23;;;;;;;;;;;;;;;-144.47;100.00;61586.06;5020331;28;20381;-74
2023/01/03 10:35:50;;;;;;;;;;;;;;;-144.47;100.00;61586.06;5022564;28;20369;-78
2023/01/03 10:38:16;;;;;;;;;;;;;;;-144.47;100.00;61586.06;5022719;28;20385;-78
2023/01/03 10:40:43;;;;;;;;;;;;;;;-144.47;100.00;61586.06;5022226;28;19924;-76
2023/01/03 10:43:12;;;;;;;;;;;;;;;-144.47;100.00;61586.06;5021381;28;20368;-76
2023/01/03 10:45:48;;;;;;;;;;;;;;;-144.47;100.00;61586.06;5025175;28;20385;-77
2023/01/03 10:48:14;;;;;;;;;;;;;;;-144.47;100.00;61586.06;5021479;28;19999;-78
2023/01/03 10:50:40;;;;;;;;;;;;;;;-144.47;100.00;61586.06;5025074;28;20028;-77
2023/01/03 10:53:06;;;;;;;;;;;;;;;-144.47;100.00;61586.06;5025156;28;19916;-77
2023/01/03 10:55:33;;;;;;;;;;;;;;;-144.47;100.00;61586.06;5023705;28;20370;-77
2023/01/03 10:57:59;;;;;;;;;;;;;;;-144.47;100.00;61586.06;5024823;28;19963;-75
2023/01/03 11:00:32;;;;;;;;;;;;;;;-144.47;100.00;61586.06;5021661;28;20333;-75
2023/01/03 11:03:13;;;;;;;;;;;;;;;-144.47;100.00;61586.06;5020652;28;20012;-78
2023/01/03 11:05:40;;;;;;;;;;;;;;;-144.47;100.00;61586.06;5022473;28;20416;-79
2023/01/03 11:08:17;;;;;;;;;;;;;;;-144.47;100.00;61586.06;5022714;28;20435;-78
2023/01/03 11:10:49;;;;;;;;;;;;;;;-144.47;100.00;61586.06;5021341;28;19921;-79
2023/01/03 11:13:23;;;;;;;;;;;;;;;-144.47;100.00;61586.06;5022757;28;19918;-79
2023/01/03 11:15:56;;;;;;;;;;;;;;;-144.47;100.00;61586.06;5021674;28;19963;-79
2023/01/03 11:18:24;;;;;;;;;;;;;;;-144.47;100.00;61586.06;5014052;28;20387;-79
2023/01/03 11:20:49;;;;;;;;;;;;;;;-144.47;100.00;61586.06;5022175;28;19995;-78
2023/01/03 11:23:18;;;;;;;;;;;;;;;-144.47;100.00;61586.06;5021784;28;20021;-79
2023/01/03 11:25:43;;;;;;;;;;;;;;;-144.47;100.00;61586.06;5022504;28;20420;-80
2023/01/03 11:28:36;;;;;;;;;;;;;;;-144.47;100.00;61586.06;5017304;28;19925;-80
2023/01/03 11:31:10;;;;;;;;;;;;;;;-144.47;100.00;61586.06;5020712;28;19917;-80
2023/01/03 11:33:46;;;;;;;;;;;;;;;-144.47;100.00;61586.06;5020255;28;19917;-78
2023/01/03 11:36:24;;;;;;;;;;;;;;;-144.47;100.00;61586.06;5023504;28;20004;-78
2023/01/03 11:38:56;;;;;;;;;;;;;;;-144.47;100.00;61586.06;5024272;28;20366;-76
2023/01/03 11:41:45;;;;;;;;;;;;;;;-144.47;100.00;61586.06;5025528;28;20326;-76
2023/01/03 11:44:14;;;;;;;;;;;;;;;-144.47;100.00;61586.06;5016556;28;20008;-77
2023/01/03 11:46:39;;;;;;;;;;;;;;;-144.47;100.00;61586.06;5023821;28;19917;-78
2023/01/03 11:49:23;;;;;;;;;;;;;;;-144.47;100.00;61586.06;5023180;28;20373;-77
2023/01/03 11:51:49;;;;;;;;;;;;;;;-144.47;100.00;61586.06;5024759;28;20347;-76
2023/01/03 11:54:33;;;;;;;;;;;;;;;-144.47;100.00;61586.06;5022487;28;20051;-76
2023/01/03 11:57:02;;;;;;;;;;;;;;;-144.47;100.00;61586.06;5019929;28;20014;-79
2023/01/03 11:59:43;;;;;;;;;;;;;;;-144.47;100.00;61586.06;5021155;28;20281;-78
2023/01/03 12:02:29;;;;;;;;;;;;;;;-144.47;100.00;61586.06;5023016;28;19917;-74
2023/01/03 12:04:57;;;;;;;;;;;;;;;-144.47;100.00;61586.06;5022466;28;19928;-76
2023/01/03 12:07:37;;;;;;;;;;;;;;;-144.47;100.00;61586.06;5012515;28;20440;-77
2023/01/03 12:10:09;;;;;;;;;;;;;;;-144.47;100.00;61586.06;5020349;28;19939;-77
2023/01/03 12:12:52;;;;;;;;;;;;;;;-144.47;100.00;61586.06;5022390;28;19917;-78
2023/01/03 12:15:18;;;;;;;;;;;;;;;-144.47;100.00;61586.06;5016475;28;19917;-74
2023/01/03 12:17:50;;;;;;;;;;;;;;;-144.47;100.00;61586.06;5016822;28;19918;-75
2023/01/03 12:20:23;;;;;;;;;;;;;;;-144.47;100.00;61586.06;5018288;28;19924;-75
2023/01/03 12:22:48;;;;;;;;;;;;;;;-144.47;100.00;61586.06;5020506;28;20328;-74
2023/01/03 12:25:31;;;;;;;;;;;;;;;-144.47;100.00;61586.06;5023210;28;19917;-75
2023/01/03 12:28:13;;;;;;;;;;;;;;;-144.47;100.00;61586.06;5016853;28;20304;-77
2023/01/03 12:30:58;;;;;;;;;;;;;;;-144.47;100.00;61586.06;5015941;28;20301;-79
2023/01/03 12:33:24;;;;;;;;;;;;;;;-144.47;100.00;61586.06;5020099;28;19917;-76
2023/01/03 12:35:58;;;;;;;;;;;;;;;-144.47;100.00;61586.06;5019965;28;19917;-77
2023/01/03 12:38:28;;;;;;;;;;;;;;;-144.47;100.00;61586.06;5017416;28;19975;-74
2023/01/03 12:40:58;;;;;;;;;;;;;;;-144.47;100.00;61586.06;5023317;28;20406;-78
2023/01/03 12:43:27;;;;;;;;;;;;;;;-144.47;100.00;61586.06;5015879;28;19980;-79
2023/01/03 12:46:07;;;;;;;;;;;;;;;-144.47;100.00;61586.06;5024190;28;19917;-79
2023/01/03 12:48:53;;;;;;;;;;;;;;;-144.47;100.00;61586.06;5018388;28;20355;-78
2023/01/03 12:51:20;;;;;;;;;;;;;;;-144.47;100.00;61586.06;5009185;28;19921;-79
2023/01/03 12:53:50;;;;;;;;;;;;;;;-144.47;100.00;61586.06;5023643;28;19918;-80
2023/01/03 12:56:33;;;;;;;;;;;;;;;-144.47;100.00;61586.06;5020354;28;19917;-78
2023/01/03 12:59:17;;;;;;;;;;;;;;;-144.47;100.00;61586.06;5018246;28;19917;-79
2023/01/03 13:01:45;;;;;;;;;;;;;;;-144.47;100.00;61586.06;5022623;28;20288;-79
2023/01/03 13:04:18;;;;;;;;;;;;;;;-144.47;100.00;61586.06;5021748;28;19917;-76
2023/01/03 13:06:59;;;;;;;;;;;;;;;-144.47;100.00;61586.06;5019803;28;19917;-76
2023/01/03 13:09:30;;;;;;;;;;;;;;;-144.47;100.00;61586.06;5018539;28;20285;-77
2023/01/03 13:12:02;;;;;;;;;;;;;;;-144.47;100.00;61586.06;5029189;28;20335;-79
2023/01/03 13:14:28;;;;;;;;;;;;;;;-144.47;100.00;61586.06;5023232;28;19921;-77
2023/01/03 13:17:14;;;;;;;;;;;;;;;-144.47;100.00;61586.06;5028319;28;19971;-79
2023/01/03 13:19:49;;;;;;;;;;;;;;;-144.47;100.00;61586.06;5024776;28;19926;-79
2023/01/03 13:22:19;;;;;;;;;;;;;;;-144.47;100.00;61586.06;5024768;28;19916;-75
2023/01/03 13:24:45;;;;;;;;;;;;;;;-144.47;100.00;61586.06;5027831;28;19940;-78
2023/01/03 13:27:18;;;;;;;;;;;;;;;-144.47;100.00;61586.06;5027089;28;19923;-77
2023/01/03 13:29:44;;;;;;;;;;;;;;;-144.47;100.00;61586.06;5021680;28;20391;-77